WIE weather

Public forecast

Using degrees Celsius for public forecast. Weather courtesy of forecast.io.

Current aviation weather report (METAR) for Wiesbaden Army Airfield

Retrieved 2020/08/14 13:33 UTC (0 seconds ago):

ETOU 141333Z 05006KT 9999 -RA VCTS SCT047 BKN060 23/16 A2996 RMK AO2A RAB32 TSE32 SLP143

Aviation forecast (TAF) for Wiesbaden Army Airfield

Retrieved 2020/08/14 12:09 UTC (1 hour ago):

TAF ETOU 141203Z 1412/1518 16010G15KT 9999 VCTS SCT100 BKN150CB QNH2993INS TEMPO 1412/1416 20015G25KT 8000 -TSRA BKN060CB OVC120 BECMG 1418/1419 25005KT 9999 NSW SCT080 QNH2991INS BECMG 1511/1512 25010G15KT 9999 VCTS BKN050CB QNH2995INS TX31/1414Z TN22/1504Z